Time;durP1;ratioP1;P1;durP2;ratioP2;P2;SDS_P1;SDS_P2;PMS_P1;PMS_P2;Temp;Humidity;BMP_temperature;BMP_pressure;BME280_temperature;BME280_humidity;BME280_pressure;Samples;Min_cycle;Max_cycle;Signal;HPM_P1;HPM_P2
2023/05/19 00:00:45;;;;;;;2.05;1.10;;;;;;;;;;12748520;23;20487;-87
2023/05/19 00:05:52;;;;;;;3.30;1.13;;;;;;;;;;12776747;23;20020;-86
2023/05/19 00:10:58;;;;;;;1.40;0.90;;;;;;;;;;12748956;23;20108;-87
2023/05/19 00:16:01;;;;;;;2.03;1.10;;;;;;;;;;12750633;23;20056;-87
2023/05/19 00:21:05;;;;;;;2.97;1.10;;;;;;;;;;12776340;23;20037;-86
2023/05/19 00:26:10;;;;;;;2.67;0.88;;;;;;;;;;12688399;23;20025;-86
2023/05/19 00:31:16;;;;;;;2.08;1.10;;;;;;;;;;12687020;23;20028;-88
2023/05/19 00:36:20;;;;;;;3.83;1.02;;;;;;;;;;12732003;23;20353;-86
2023/05/19 00:41:26;;;;;;;1.10;0.80;;;;;;;;;;12689267;23;20017;-87
2023/05/19 00:46:30;;;;;;;1.65;1.05;;;;;;;;;;12690172;23;20405;-86
2023/05/19 00:51:33;;;;;;;1.55;0.80;;;;;;;;;;12732814;23;20025;-86
2023/05/19 00:56:38;;;;;;;2.03;0.90;;;;;;;;;;12737486;23;20025;-87
2023/05/19 01:01:42;;;;;;;2.92;0.85;;;;;;;;;;12690522;23;20029;-86
2023/05/19 01:06:46;;;;;;;1.40;0.77;;;;;;;;;;12693056;23;20041;-89
2023/05/19 01:11:51;;;;;;;3.88;1.10;;;;;;;;;;12716893;23;20514;-87
2023/05/19 01:17:04;;;;;;;2.58;1.10;;;;;;;;;;12692233;23;20065;-86
2023/05/19 01:22:26;;;;;;;3.70;1.20;;;;;;;;;;12691937;23;20025;-86
2023/05/19 01:27:44;;;;;;;2.17;1.10;;;;;;;;;;12691758;23;20036;-88
2023/05/19 01:32:51;;;;;;;4.13;1.20;;;;;;;;;;12729115;23;20080;-86
2023/05/19 01:37:56;;;;;;;0.82;0.65;;;;;;;;;;12690219;23;20025;-87
2023/05/19 01:43:01;;;;;;;2.00;1.00;;;;;;;;;;12691514;23;20492;-86
2023/05/19 01:48:07;;;;;;;1.83;0.95;;;;;;;;;;12691538;23;20068;-86
2023/05/19 01:53:14;;;;;;;1.80;0.90;;;;;;;;;;12680494;23;20410;-88
2023/05/19 01:58:26;;;;;;;2.80;1.00;;;;;;;;;;12713228;23;20076;-86
2023/05/19 02:03:42;;;;;;;2.63;1.00;;;;;;;;;;12689736;23;20528;-88
2023/05/19 02:08:54;;;;;;;0.77;0.75;;;;;;;;;;12688662;23;20025;-87
2023/05/19 02:14:03;;;;;;;1.50;0.90;;;;;;;;;;12689734;23;20025;-86
2023/05/19 02:19:21;;;;;;;2.25;1.10;;;;;;;;;;12690310;23;20029;-88
2023/05/19 02:24:25;;;;;;;2.08;1.00;;;;;;;;;;12689785;23;20025;-87
2023/05/19 02:29:28;;;;;;;1.45;0.95;;;;;;;;;;12689799;23;20022;-89
2023/05/19 02:34:33;;;;;;;1.42;0.95;;;;;;;;;;12687950;23;20029;-87
2023/05/19 02:39:39;;;;;;;1.52;0.77;;;;;;;;;;12689145;23;20141;-89
2023/05/19 02:44:42;;;;;;;1.17;0.70;;;;;;;;;;12714328;23;20028;-87
2023/05/19 02:49:48;;;;;;;3.42;0.88;;;;;;;;;;12714969;23;20057;-87
2023/05/19 02:54:52;;;;;;;1.13;0.82;;;;;;;;;;12690342;23;20021;-87
2023/05/19 02:59:55;;;;;;;3.17;0.70;;;;;;;;;;12688979;23;20025;-87
2023/05/19 03:05:02;;;;;;;2.25;1.10;;;;;;;;;;12713933;23;20695;-90
2023/05/19 03:10:07;;;;;;;0.98;0.88;;;;;;;;;;12689791;23;20029;-86
2023/05/19 03:15:13;;;;;;;1.75;0.90;;;;;;;;;;12690276;23;20184;-86
2023/05/19 03:20:18;;;;;;;1.48;1.10;;;;;;;;;;12690858;23;20210;-87
2023/05/19 03:25:22;;;;;;;1.60;0.95;;;;;;;;;;12692651;23;20315;-88
2023/05/19 03:30:26;;;;;;;1.77;0.80;;;;;;;;;;12692378;23;20026;-87
2023/05/19 03:35:45;;;;;;;1.48;1.20;;;;;;;;;;12689162;23;20339;-86
2023/05/19 03:40:50;;;;;;;1.48;0.77;;;;;;;;;;12687739;23;20024;-87
2023/05/19 03:45:54;;;;;;;1.45;0.80;;;;;;;;;;12734821;23;20025;-86
2023/05/19 03:51:22;;;;;;;3.72;1.00;;;;;;;;;;12703254;23;20025;-86
2023/05/19 03:56:29;;;;;;;2.10;0.93;;;;;;;;;;12688426;23;20021;-88
2023/05/19 04:01:33;;;;;;;1.27;0.80;;;;;;;;;;12710908;23;20029;-86
2023/05/19 04:06:38;;;;;;;1.10;0.80;;;;;;;;;;12689897;23;20030;-87
2023/05/19 04:11:41;;;;;;;2.80;0.90;;;;;;;;;;12688409;23;20084;-84
2023/05/19 04:16:45;;;;;;;1.38;0.70;;;;;;;;;;12688328;23;20025;-89
2023/05/19 04:21:49;;;;;;;1.50;0.70;;;;;;;;;;12687935;23;20026;-86
2023/05/19 04:26:53;;;;;;;2.33;1.00;;;;;;;;;;12689570;23;20036;-87
2023/05/19 04:31:56;;;;;;;1.17;0.70;;;;;;;;;;12691045;23;20108;-87
2023/05/19 04:37:02;;;;;;;2.30;1.02;;;;;;;;;;12691701;23;20029;-89
2023/05/19 04:42:06;;;;;;;1.30;0.82;;;;;;;;;;12692750;23;20342;-87
2023/05/19 04:47:10;;;;;;;1.70;0.90;;;;;;;;;;12692526;23;20041;-88
2023/05/19 04:52:20;;;;;;;0.85;0.68;;;;;;;;;;12691736;23;20461;-86
2023/05/19 04:57:24;;;;;;;1.92;0.95;;;;;;;;;;12693024;23;20415;-87
2023/05/19 05:02:28;;;;;;;1.60;0.68;;;;;;;;;;12695469;23;20081;-89
2023/05/19 05:08:25;;;;;;;;;;;;;;;;;;;;;
2023/05/19 05:42:57;;;;;;;1.30;0.80;;;;;;;;;;12694981;22;20045;-86
2023/05/19 05:48:04;;;;;;;0.98;0.63;;;;;;;;;;12770014;23;20031;-86
2023/05/19 05:53:09;;;;;;;1.67;0.95;;;;;;;;;;12769207;23;20164;-88
2023/05/19 05:58:16;;;;;;;3.30;1.20;;;;;;;;;;12768427;23;20025;-85
2023/05/19 06:03:22;;;;;;;4.07;1.35;;;;;;;;;;12768394;23;20362;-86
2023/05/19 06:08:27;;;;;;;4.15;1.52;;;;;;;;;;12765162;23;20021;-87
2023/05/19 06:13:32;;;;;;;3.15;0.88;;;;;;;;;;12765459;23;20032;-86
2023/05/19 06:18:36;;;;;;;1.63;0.77;;;;;;;;;;12766012;23;20056;-86
2023/05/19 06:23:39;;;;;;;2.83;0.80;;;;;;;;;;12789513;23;20028;-86
2023/05/19 06:28:46;;;;;;;2.65;1.02;;;;;;;;;;12765520;23;20052;-86
2023/05/19 06:33:50;;;;;;;0.77;0.50;;;;;;;;;;12801233;23;20025;-86
2023/05/19 06:38:53;;;;;;;2.35;0.90;;;;;;;;;;12765951;23;20032;-86
2023/05/19 06:43:59;;;;;;;1.48;0.70;;;;;;;;;;12767498;23;20425;-86
2023/05/19 06:49:07;;;;;;;2.45;0.65;;;;;;;;;;12767326;23;20044;-86
2023/05/19 06:54:15;;;;;;;1.50;0.65;;;;;;;;;;12791924;23;20060;-86
2023/05/19 06:59:21;;;;;;;1.52;0.80;;;;;;;;;;12762898;23;20035;-86
2023/05/19 07:04:26;;;;;;;1.70;0.80;;;;;;;;;;12763170;23;20032;-87
2023/05/19 07:09:31;;;;;;;1.27;0.52;;;;;;;;;;12763635;23;20529;-85
2023/05/19 07:14:37;;;;;;;2.25;0.90;;;;;;;;;;12763205;23;20144;-85
2023/05/19 07:19:41;;;;;;;2.35;0.60;;;;;;;;;;12763687;23;20029;-85
2023/05/19 07:24:44;;;;;;;2.95;1.13;;;;;;;;;;12763546;23;20021;-85
2023/05/19 07:29:49;;;;;;;4.15;1.23;;;;;;;;;;12763044;23;20031;-86
2023/05/19 07:34:52;;;;;;;1.48;0.70;;;;;;;;;;12789492;23;20028;-85
2023/05/19 07:39:56;;;;;;;5.85;1.10;;;;;;;;;;12788218;23;20044;-87
2023/05/19 07:45:02;;;;;;;1.25;0.82;;;;;;;;;;12763524;23;20092;-87
2023/05/19 07:50:06;;;;;;;1.40;0.75;;;;;;;;;;12763126;23;20025;-85
2023/05/19 07:55:10;;;;;;;2.80;0.88;;;;;;;;;;12764291;23;20048;-86
2023/05/19 08:00:16;;;;;;;2.38;1.15;;;;;;;;;;12766350;23;20048;-85
2023/05/19 08:05:20;;;;;;;;;;;;;;;;;;12798096;23;20043;-86
2023/05/19 08:10:23;;;;;;;1.58;0.80;;;;;;;;;;12770495;23;19927;-86
2023/05/19 08:15:28;;;;;;;2.58;0.88;;;;;;;;;;12771259;23;20021;-87
2023/05/19 08:20:32;;;;;;;3.92;0.95;;;;;;;;;;12770946;23;20060;-86
2023/05/19 08:25:36;;;;;;;1.45;1.00;;;;;;;;;;12795530;23;20481;-86
2023/05/19 08:30:40;;;;;;;1.80;0.70;;;;;;;;;;12796279;23;20028;-87
2023/05/19 08:35:44;;;;;;;2.78;1.00;;;;;;;;;;12794773;23;20024;-86
2023/05/19 08:40:48;;;;;;;3.95;0.95;;;;;;;;;;12768835;23;20092;-87
2023/05/19 08:45:54;;;;;;;3.15;0.82;;;;;;;;;;12770169;23;20021;-85
2023/05/19 08:51:05;;;;;;;;;;;;;;;;;;12769788;23;20072;-86
2023/05/19 08:56:11;;;;;;;2.95;1.02;;;;;;;;;;12795219;23;19924;-86
2023/05/19 09:01:17;;;;;;;1.98;0.80;;;;;;;;;;12809571;23;20024;-86
2023/05/19 09:06:21;;;;;;;2.13;0.80;;;;;;;;;;12765962;23;20020;-85
2023/05/19 09:11:24;;;;;;;2.13;1.08;;;;;;;;;;12765923;23;20017;-86
2023/05/19 09:16:31;;;;;;;4.50;1.40;;;;;;;;;;12764880;23;20048;-87
2023/05/19 09:21:39;;;;;;;3.17;0.85;;;;;;;;;;12804833;23;20029;-87
2023/05/19 09:26:43;;;;;;;1.38;0.60;;;;;;;;;;12763656;23;20542;-86
2023/05/19 09:31:51;;;;;;;2.50;0.80;;;;;;;;;;12765518;23;20513;-87
2023/05/19 09:36:54;;;;;;;2.28;0.80;;;;;;;;;;12765812;23;20028;-87
2023/05/19 09:41:58;;;;;;;4.43;0.90;;;;;;;;;;12789901;23;20072;-86
2023/05/19 09:47:03;;;;;;;2.85;0.98;;;;;;;;;;12790856;23;20029;-85
2023/05/19 09:52:08;;;;;;;1.95;0.70;;;;;;;;;;12805393;23;20025;-87
2023/05/19 09:57:12;;;;;;;5.60;1.20;;;;;;;;;;12765547;23;20087;-86
2023/05/19 10:02:20;;;;;;;1.92;1.00;;;;;;;;;;12764965;23;20032;-87
2023/05/19 10:07:24;;;;;;;3.13;0.73;;;;;;;;;;12765348;23;20029;-86
2023/05/19 10:12:28;;;;;;;6.40;1.30;;;;;;;;;;12789655;23;20140;-86
2023/05/19 10:17:34;;;;;;;3.63;1.10;;;;;;;;;;12764774;23;20394;-86
2023/05/19 10:22:37;;;;;;;;;;;;;;;;;;12764854;23;20021;-86
2023/05/19 10:27:43;;;;;;;3.63;1.13;;;;;;;;;;12764661;23;19916;-86
2023/05/19 10:32:49;;;;;;;2.47;0.75;;;;;;;;;;12790484;23;20478;-86
2023/05/19 10:37:58;;;;;;;2.30;0.60;;;;;;;;;;12791599;23;20028;-86
2023/05/19 10:43:13;;;;;;;1.10;0.60;;;;;;;;;;12801271;23;20075;-86
2023/05/19 10:48:19;;;;;;;2.20;0.75;;;;;;;;;;12800953;23;20087;-86
2023/05/19 10:53:30;;;;;;;0.98;0.50;;;;;;;;;;12789256;23;20104;-86
2023/05/19 10:58:54;;;;;;;1.38;0.73;;;;;;;;;;12790528;23;20029;-87
2023/05/19 11:09:32;;;;;;;2.88;1.00;;;;;;;;;;12564432;23;20033;-86
2023/05/19 11:14:36;;;;;;;4.45;0.90;;;;;;;;;;12530320;23;20022;-85
2023/05/19 11:19:40;;;;;;;1.10;0.95;;;;;;;;;;12534431;23;20740;-85
2023/05/19 11:24:48;;;;;;;4.60;0.80;;;;;;;;;;12534444;23;20102;-85
2023/05/19 11:29:52;;;;;;;3.72;0.95;;;;;;;;;;12536228;23;20286;-85
2023/05/19 11:34:56;;;;;;;1.83;0.80;;;;;;;;;;12533221;23;20023;-86
2023/05/19 11:40:04;;;;;;;3.53;1.10;;;;;;;;;;12535087;23;20059;-86
2023/05/19 11:45:09;;;;;;;1.73;0.80;;;;;;;;;;12534765;23;20023;-85
2023/05/19 11:50:13;;;;;;;1.67;0.52;;;;;;;;;;12533574;23;20360;-85
2023/05/19 11:55:18;;;;;;;0.73;0.68;;;;;;;;;;12533633;23;20466;-85
2023/05/19 12:00:23;;;;;;;3.45;0.75;;;;;;;;;;12534223;23;20075;-85
2023/05/19 12:05:28;;;;;;;2.05;0.68;;;;;;;;;;12532659;23;20015;-85
2023/05/19 12:10:34;;;;;;;3.38;1.08;;;;;;;;;;12533048;23;20038;-85
2023/05/19 12:15:37;;;;;;;0.85;0.68;;;;;;;;;;12533489;23;20475;-86
2023/05/19 12:20:41;;;;;;;1.63;0.50;;;;;;;;;;12532899;23;20027;-85
2023/05/19 12:25:46;;;;;;;1.77;0.88;;;;;;;;;;12532838;23;20462;-85
2023/05/19 12:30:51;;;;;;;1.93;0.60;;;;;;;;;;12533329;23;20405;-85
2023/05/19 12:35:55;;;;;;;0.80;0.57;;;;;;;;;;12533452;23;20057;-85
2023/05/19 12:41:00;;;;;;;2.30;0.73;;;;;;;;;;12532178;23;20050;-85
2023/05/19 12:46:10;;;;;;;1.52;0.50;;;;;;;;;;12534629;23;20022;-85
2023/05/19 12:51:17;;;;;;;3.17;0.80;;;;;;;;;;12536608;23;20351;-85
2023/05/19 12:56:25;;;;;;;1.98;0.57;;;;;;;;;;12538269;23;20022;-85
2023/05/19 13:01:30;;;;;;;2.63;0.73;;;;;;;;;;12535680;23;20027;-85
2023/05/19 13:06:33;;;;;;;1.55;0.70;;;;;;;;;;12537627;23;20030;-86
2023/05/19 13:11:39;;;;;;;2.03;0.70;;;;;;;;;;12535792;23;20097;-86
2023/05/19 13:16:46;;;;;;;2.67;0.80;;;;;;;;;;12536693;23;20026;-86
2023/05/19 13:21:49;;;;;;;3.38;1.90;;;;;;;;;;12550437;23;20030;-86
2023/05/19 13:26:54;;;;;;;1.77;0.85;;;;;;;;;;12554493;23;20086;-86
2023/05/19 13:31:58;;;;;;;2.80;0.90;;;;;;;;;;12551604;23;20097;-85
2023/05/19 13:37:03;;;;;;;1.27;0.70;;;;;;;;;;12538321;23;20252;-86
2023/05/19 13:42:09;;;;;;;1.13;0.60;;;;;;;;;;12535404;23;20350;-85
2023/05/19 13:47:12;;;;;;;;;;;;;;;;;;12537814;23;20036;-85
2023/05/19 13:52:17;;;;;;;2.35;0.85;;;;;;;;;;12558083;23;20357;-85
2023/05/19 13:57:23;;;;;;;1.00;0.60;;;;;;;;;;12534982;23;20550;-85
2023/05/19 14:02:26;;;;;;;1.55;0.63;;;;;;;;;;12533739;23;20375;-85
2023/05/19 14:07:29;;;;;;;2.50;0.90;;;;;;;;;;12534440;23;20030;-85
2023/05/19 14:12:35;;;;;;;1.48;0.80;;;;;;;;;;12533992;23;20059;-87
2023/05/19 14:17:47;;;;;;;1.70;0.60;;;;;;;;;;12536396;23;20033;-87
2023/05/19 14:22:51;;;;;;;1.48;0.57;;;;;;;;;;12535310;23;20412;-88
2023/05/19 14:27:56;;;;;;;1.77;0.68;;;;;;;;;;12536088;23;20030;-94
2023/05/19 14:32:59;;;;;;;1.47;0.90;;;;;;;;;;12535753;23;20022;-89
2023/05/19 14:38:02;;;;;;;1.42;0.60;;;;;;;;;;12536656;23;20031;-88
2023/05/19 14:43:07;;;;;;;1.05;0.65;;;;;;;;;;12536615;23;20035;-88
2023/05/19 14:48:12;;;;;;;2.97;0.65;;;;;;;;;;12547767;23;20031;-87
2023/05/19 14:53:16;;;;;;;1.20;0.55;;;;;;;;;;12537606;23;20027;-88
2023/05/19 14:58:20;;;;;;;1.05;0.90;;;;;;;;;;12542421;23;20030;-90
2023/05/19 15:03:28;;;;;;;1.92;0.85;;;;;;;;;;12564078;23;20476;-87
2023/05/19 15:08:32;;;;;;;1.58;0.82;;;;;;;;;;12539159;23;20090;-87
2023/05/19 15:13:37;;;;;;;1.90;0.85;;;;;;;;;;12538670;23;20070;-87
2023/05/19 15:18:40;;;;;;;0.70;0.70;;;;;;;;;;12541934;23;20038;-89
2023/05/19 15:23:44;;;;;;;4.63;1.67;;;;;;;;;;12543079;23;20466;-88
2023/05/19 15:28:52;;;;;;;1.80;0.80;;;;;;;;;;12536932;23;20502;-90
2023/05/19 15:33:56;;;;;;;2.70;0.88;;;;;;;;;;12536056;23;20082;-87
2023/05/19 15:39:00;;;;;;;1.55;0.90;;;;;;;;;;12538976;23;20045;-90
2023/05/19 15:44:06;;;;;;;1.05;0.70;;;;;;;;;;12539789;23;20082;-89
2023/05/19 15:49:10;;;;;;;1.42;0.52;;;;;;;;;;12541553;23;20038;-87
2023/05/19 15:54:15;;;;;;;2.95;0.45;;;;;;;;;;12542288;23;20023;-88
2023/05/19 15:59:20;;;;;;;1.80;0.63;;;;;;;;;;12543541;23;20033;-88
2023/05/19 16:04:23;;;;;;;1.48;0.60;;;;;;;;;;12544175;23;20038;-92
2023/05/19 16:09:27;;;;;;;2.40;0.98;;;;;;;;;;12546079;23;20030;-88
2023/05/19 16:14:35;;;;;;;1.98;0.90;;;;;;;;;;12543841;23;20034;-88
2023/05/19 16:19:38;;;;;;;1.17;0.70;;;;;;;;;;12542207;23;20034;-91
2023/05/19 16:24:42;;;;;;;1.45;0.75;;;;;;;;;;12537685;23;20082;-88
2023/05/19 16:29:46;;;;;;;1.35;0.75;;;;;;;;;;12535556;23;20090;-88
2023/05/19 16:34:51;;;;;;;1.08;0.80;;;;;;;;;;12540085;23;20027;-88
2023/05/19 16:39:55;;;;;;;1.40;0.80;;;;;;;;;;12533463;23;20037;-88
2023/05/19 16:45:00;;;;;;;3.85;0.60;;;;;;;;;;12541511;23;20518;-89
2023/05/19 16:50:04;;;;;;;2.25;0.70;;;;;;;;;;12543006;23;20026;-90
2023/05/19 16:55:09;;;;;;;0.93;0.70;;;;;;;;;;12541771;23;20034;-91
2023/05/19 17:00:15;;;;;;;1.77;0.90;;;;;;;;;;12541305;23;20085;-90
2023/05/19 17:05:18;;;;;;;1.48;0.52;;;;;;;;;;12594427;23;20024;-89
2023/05/19 17:10:22;;;;;;;2.13;0.50;;;;;;;;;;12767887;23;20482;-89
2023/05/19 17:15:27;;;;;;;1.08;0.60;;;;;;;;;;12771542;23;20033;-89
2023/05/19 17:20:31;;;;;;;2.50;0.63;;;;;;;;;;12795454;23;20033;-89
2023/05/19 17:25:35;;;;;;;1.20;0.73;;;;;;;;;;12794148;23;20108;-90
2023/05/19 17:30:41;;;;;;;1.05;0.55;;;;;;;;;;12768036;23;20021;-89
2023/05/19 17:35:44;;;;;;;1.45;0.70;;;;;;;;;;12768650;23;20029;-89
2023/05/19 17:40:48;;;;;;;0.75;0.40;;;;;;;;;;12768634;23;20052;-90
2023/05/19 17:45:53;;;;;;;0.75;0.35;;;;;;;;;;12769067;23;20516;-89
2023/05/19 17:50:56;;;;;;;0.63;0.50;;;;;;;;;;12795537;23;20029;-89
2023/05/19 17:56:01;;;;;;;0.95;0.60;;;;;;;;;;12768702;23;20636;-90
2023/05/19 18:01:07;;;;;;;2.70;0.60;;;;;;;;;;12795122;23;20482;-90
2023/05/19 18:06:11;;;;;;;0.40;0.32;;;;;;;;;;12768783;23;20055;-89
2023/05/19 18:11:15;;;;;;;0.75;0.50;;;;;;;;;;12794847;23;20032;-89
2023/05/19 18:16:20;;;;;;;1.83;0.50;;;;;;;;;;12769673;23;20017;-89
2023/05/19 18:21:24;;;;;;;0.40;0.30;;;;;;;;;;12794705;23;20027;-89
2023/05/19 18:26:27;;;;;;;1.00;0.40;;;;;;;;;;12769503;23;20021;-89
2023/05/19 18:31:32;;;;;;;1.02;0.47;;;;;;;;;;12770279;23;20613;-89
2023/05/19 18:36:35;;;;;;;1.30;0.60;;;;;;;;;;12811941;23;20025;-89
2023/05/19 18:41:40;;;;;;;0.90;0.55;;;;;;;;;;12795949;23;20032;-89
2023/05/19 18:46:45;;;;;;;1.40;0.60;;;;;;;;;;12795442;23;20690;-89
2023/05/19 18:51:48;;;;;;;0.87;0.50;;;;;;;;;;12769750;23;20064;-91
2023/05/19 18:56:52;;;;;;;3.05;0.77;;;;;;;;;;12769523;23;20091;-89
2023/05/19 19:01:57;;;;;;;2.30;0.70;;;;;;;;;;12812298;23;20028;-91
2023/05/19 19:07:00;;;;;;;1.30;0.73;;;;;;;;;;12795700;23;20025;-89
2023/05/19 19:12:04;;;;;;;1.08;0.50;;;;;;;;;;12770450;23;20497;-89
2023/05/19 19:17:09;;;;;;;1.20;0.57;;;;;;;;;;12797569;23;20091;-89
2023/05/19 19:22:12;;;;;;;1.05;0.60;;;;;;;;;;12810477;23;20051;-89
2023/05/19 19:27:16;;;;;;;0.60;0.60;;;;;;;;;;12809293;23;20021;-90
2023/05/19 19:32:21;;;;;;;1.50;0.70;;;;;;;;;;12769870;23;20032;-89
2023/05/19 19:37:24;;;;;;;1.48;0.75;;;;;;;;;;12797486;23;20025;-89
2023/05/19 19:42:28;;;;;;;1.55;0.70;;;;;;;;;;12795109;23;20403;-89
2023/05/19 19:47:32;;;;;;;1.73;0.60;;;;;;;;;;12797319;23;20029;-88
2023/05/19 19:52:36;;;;;;;1.00;0.60;;;;;;;;;;12769910;23;20092;-90
2023/05/19 19:57:39;;;;;;;2.25;0.60;;;;;;;;;;12769123;23;20032;-89
2023/05/19 20:02:46;;;;;;;0.68;0.63;;;;;;;;;;12770098;23;20051;-89
2023/05/19 20:08:05;;;;;;;2.88;0.80;;;;;;;;;;12770165;23;20025;-89
2023/05/19 20:13:08;;;;;;;0.50;0.40;;;;;;;;;;12806693;23;20024;-89
2023/05/19 20:18:14;;;;;;;0.85;0.50;;;;;;;;;;12768869;23;20415;-89
2023/05/19 20:23:17;;;;;;;0.82;0.70;;;;;;;;;;12770165;23;20079;-89
2023/05/19 20:28:21;;;;;;;1.88;0.57;;;;;;;;;;12796388;23;20025;-89
2023/05/19 20:33:26;;;;;;;1.23;0.60;;;;;;;;;;12769668;23;20035;-89
2023/05/19 20:38:30;;;;;;;0.80;0.60;;;;;;;;;;12770836;23;20025;-89
2023/05/19 20:43:33;;;;;;;1.92;0.60;;;;;;;;;;12770742;23;20083;-89
2023/05/19 20:48:38;;;;;;;1.90;0.75;;;;;;;;;;12770144;23;20025;-89
2023/05/19 20:53:41;;;;;;;1.20;0.80;;;;;;;;;;12804039;23;20025;-89
2023/05/19 20:58:45;;;;;;;0.80;0.50;;;;;;;;;;12769914;23;20071;-89
2023/05/19 21:03:50;;;;;;;1.00;0.70;;;;;;;;;;12769959;23;20025;-90
2023/05/19 21:08:53;;;;;;;1.88;0.90;;;;;;;;;;12733952;23;20025;-89
2023/05/19 21:13:57;;;;;;;1.35;0.70;;;;;;;;;;12711397;23;20021;-89
2023/05/19 21:19:02;;;;;;;1.25;0.70;;;;;;;;;;12711710;23;20032;-89
2023/05/19 21:24:06;;;;;;;1.17;0.70;;;;;;;;;;12711620;23;20021;-88
2023/05/19 21:29:09;;;;;;;1.65;1.10;;;;;;;;;;12735656;23;20451;-89
2023/05/19 21:34:14;;;;;;;1.88;1.00;;;;;;;;;;12710010;23;20665;-89
2023/05/19 21:39:18;;;;;;;1.42;1.00;;;;;;;;;;12710050;23;20021;-90
2023/05/19 21:44:22;;;;;;;2.15;1.17;;;;;;;;;;12736416;23;20100;-89
2023/05/19 21:49:27;;;;;;;1.63;1.05;;;;;;;;;;12709991;23;20564;-89
2023/05/19 21:54:31;;;;;;;2.10;0.93;;;;;;;;;;12710013;23;20044;-89
2023/05/19 21:59:34;;;;;;;1.08;0.90;;;;;;;;;;12736197;23;20068;-88
2023/05/19 22:04:40;;;;;;;1.80;1.08;;;;;;;;;;12710056;23;20028;-89
2023/05/19 22:09:44;;;;;;;1.02;0.70;;;;;;;;;;12734412;23;20048;-89
2023/05/19 22:14:48;;;;;;;1.85;0.85;;;;;;;;;;12735811;23;20022;-89
2023/05/19 22:19:53;;;;;;;1.45;0.98;;;;;;;;;;12709398;23;20014;-89
2023/05/19 22:24:56;;;;;;;0.80;0.77;;;;;;;;;;12732873;23;20025;-89
2023/05/19 22:30:00;;;;;;;1.55;0.90;;;;;;;;;;12709411;23;20120;-89
2023/05/19 22:35:07;;;;;;;1.75;1.00;;;;;;;;;;12709396;23;20076;-89
2023/05/19 22:40:11;;;;;;;1.15;0.90;;;;;;;;;;12709423;23;20072;-88
2023/05/19 22:45:14;;;;;;;1.35;0.90;;;;;;;;;;12709531;23;20026;-89
2023/05/19 22:50:19;;;;;;;2.85;1.02;;;;;;;;;;12709533;23;20410;-89
2023/05/19 22:55:23;;;;;;;1.30;0.70;;;;;;;;;;12735018;23;20029;-90
2023/05/19 23:00:26;;;;;;;1.75;0.68;;;;;;;;;;12708767;23;20045;-89
2023/05/19 23:05:31;;;;;;;1.10;0.73;;;;;;;;;;12708853;23;20026;-89
2023/05/19 23:10:34;;;;;;;0.80;0.60;;;;;;;;;;12708884;23;20586;-88
2023/05/19 23:15:38;;;;;;;1.02;0.70;;;;;;;;;;12769396;23;20033;-88
2023/05/19 23:20:43;;;;;;;2.33;0.55;;;;;;;;;;12769494;23;20475;-89
2023/05/19 23:25:46;;;;;;;1.27;0.80;;;;;;;;;;12796642;23;20610;-89
2023/05/19 23:30:52;;;;;;;0.55;0.50;;;;;;;;;;12796528;23;20071;-89
2023/05/19 23:35:57;;;;;;;0.98;0.57;;;;;;;;;;12795421;23;20138;-88
2023/05/19 23:41:00;;;;;;;0.80;0.65;;;;;;;;;;12769749;23;20489;-89
2023/05/19 23:46:04;;;;;;;1.30;0.50;;;;;;;;;;12769554;23;20362;-90
2023/05/19 23:51:09;;;;;;;0.85;0.50;;;;;;;;;;12768471;23;20289;-89
2023/05/19 23:56:12;;;;;;;0.90;0.80;;;;;;;;;;12769467;23;20021;-88
